sensor_id;sensor_type;location;lat;lon;timestamp;P1;durP1;ratioP1;P2;durP2;ratioP2
20669;SDS011;10494;50.868;4.180;2023-02-22T00:00:29;135.67;;;24.37;;
20669;SDS011;10494;50.868;4.180;2023-02-22T00:03:07;140.60;;;26.87;;
20669;SDS011;10494;50.868;4.180;2023-02-22T00:05:35;103.97;;;23.33;;
20669;SDS011;10494;50.868;4.180;2023-02-22T00:08:03;98.80;;;26.23;;
20669;SDS011;10494;50.868;4.180;2023-02-22T00:10:33;77.63;;;25.57;;
20669;SDS011;10494;50.868;4.180;2023-02-22T00:13:02;256.80;;;33.70;;
20669;SDS011;10494;50.868;4.180;2023-02-22T00:15:29;396.17;;;37.93;;
20669;SDS011;10494;50.868;4.180;2023-02-22T00:17:55;276.10;;;29.10;;
20669;SDS011;10494;50.868;4.180;2023-02-22T00:20:21;435.97;;;36.10;;
20669;SDS011;10494;50.868;4.180;2023-02-22T00:22:47;409.00;;;38.23;;
20669;SDS011;10494;50.868;4.180;2023-02-22T00:25:16;257.07;;;31.27;;
20669;SDS011;10494;50.868;4.180;2023-02-22T00:27:44;610.87;;;47.33;;
20669;SDS011;10494;50.868;4.180;2023-02-22T00:30:16;567.87;;;45.60;;
20669;SDS011;10494;50.868;4.180;2023-02-22T00:32:47;366.17;;;34.90;;
20669;SDS011;10494;50.868;4.180;2023-02-22T00:35:16;281.10;;;30.67;;
20669;SDS011;10494;50.868;4.180;2023-02-22T00:37:46;260.07;;;30.60;;
20669;SDS011;10494;50.868;4.180;2023-02-22T00:40:14;559.43;;;44.63;;
20669;SDS011;10494;50.868;4.180;2023-02-22T00:42:41;482.90;;;42.37;;
20669;SDS011;10494;50.868;4.180;2023-02-22T00:45:08;577.93;;;48.27;;
20669;SDS011;10494;50.868;4.180;2023-02-22T00:47:34;250.83;;;30.00;;
20669;SDS011;10494;50.868;4.180;2023-02-22T00:50:00;546.00;;;44.03;;
20669;SDS011;10494;50.868;4.180;2023-02-22T00:52:26;234.97;;;31.50;;
20669;SDS011;10494;50.868;4.180;2023-02-22T00:54:52;483.63;;;41.07;;
20669;SDS011;10494;50.868;4.180;2023-02-22T00:57:19;476.23;;;41.30;;
20669;SDS011;10494;50.868;4.180;2023-02-22T00:59:45;267.50;;;33.10;;
20669;SDS011;10494;50.868;4.180;2023-02-22T01:02:11;521.17;;;43.43;;
20669;SDS011;10494;50.868;4.180;2023-02-22T01:04:37;417.93;;;38.37;;
20669;SDS011;10494;50.868;4.180;2023-02-22T01:07:03;426.53;;;37.20;;
20669;SDS011;10494;50.868;4.180;2023-02-22T01:09:28;274.37;;;32.30;;
20669;SDS011;10494;50.868;4.180;2023-02-22T01:11:54;217.93;;;28.57;;
20669;SDS011;10494;50.868;4.180;2023-02-22T01:14:21;497.77;;;43.07;;
20669;SDS011;10494;50.868;4.180;2023-02-22T01:16:51;321.07;;;33.77;;
20669;SDS011;10494;50.868;4.180;2023-02-22T01:19:18;450.33;;;40.37;;
20669;SDS011;10494;50.868;4.180;2023-02-22T01:21:44;320.17;;;34.40;;
20669;SDS011;10494;50.868;4.180;2023-02-22T01:24:11;371.67;;;40.97;;
20669;SDS011;10494;50.868;4.180;2023-02-22T01:26:40;494.40;;;41.97;;
20669;SDS011;10494;50.868;4.180;2023-02-22T01:29:14;278.50;;;33.10;;
20669;SDS011;10494;50.868;4.180;2023-02-22T01:31:41;294.97;;;32.30;;
20669;SDS011;10494;50.868;4.180;2023-02-22T01:34:10;413.03;;;39.00;;
20669;SDS011;10494;50.868;4.180;2023-02-22T01:36:36;590.37;;;47.70;;
20669;SDS011;10494;50.868;4.180;2023-02-22T01:39:04;485.00;;;43.33;;
20669;SDS011;10494;50.868;4.180;2023-02-22T01:41:30;82.80;;;24.70;;
20669;SDS011;10494;50.868;4.180;2023-02-22T01:43:56;746.93;;;57.47;;
20669;SDS011;10494;50.868;4.180;2023-02-22T01:46:25;655.37;;;53.37;;
20669;SDS011;10494;50.868;4.180;2023-02-22T01:48:53;197.37;;;28.43;;
20669;SDS011;10494;50.868;4.180;2023-02-22T01:51:28;286.77;;;34.67;;
20669;SDS011;10494;50.868;4.180;2023-02-22T01:56:40;167.33;;;28.20;;
20669;SDS011;10494;50.868;4.180;2023-02-22T01:59:14;480.77;;;42.27;;
20669;SDS011;10494;50.868;4.180;2023-02-22T02:01:41;341.73;;;33.63;;
20669;SDS011;10494;50.868;4.180;2023-02-22T02:04:14;99.57;;;26.90;;
20669;SDS011;10494;50.868;4.180;2023-02-22T02:06:43;274.23;;;31.67;;
20669;SDS011;10494;50.868;4.180;2023-02-22T02:09:13;273.17;;;34.33;;
20669;SDS011;10494;50.868;4.180;2023-02-22T02:11:42;249.17;;;33.57;;
20669;SDS011;10494;50.868;4.180;2023-02-22T02:14:09;89.43;;;24.83;;
20669;SDS011;10494;50.868;4.180;2023-02-22T02:16:42;201.00;;;30.53;;
20669;SDS011;10494;50.868;4.180;2023-02-22T02:19:17;302.37;;;33.93;;
20669;SDS011;10494;50.868;4.180;2023-02-22T02:27:04;117.30;;;26.37;;
20669;SDS011;10494;50.868;4.180;2023-02-22T02:32:30;368.23;;;38.53;;
20669;SDS011;10494;50.868;4.180;2023-02-22T02:35:05;429.40;;;42.90;;
20669;SDS011;10494;50.868;4.180;2023-02-22T02:40:32;303.37;;;34.30;;
20669;SDS011;10494;50.868;4.180;2023-02-22T02:43:16;289.07;;;34.83;;
20669;SDS011;10494;50.868;4.180;2023-02-22T02:45:52;312.03;;;35.20;;
20669;SDS011;10494;50.868;4.180;2023-02-22T02:48:24;266.83;;;34.40;;
20669;SDS011;10494;50.868;4.180;2023-02-22T02:50:53;351.10;;;39.23;;
20669;SDS011;10494;50.868;4.180;2023-02-22T02:53:24;194.83;;;28.23;;
20669;SDS011;10494;50.868;4.180;2023-02-22T02:55:52;181.37;;;28.13;;
20669;SDS011;10494;50.868;4.180;2023-02-22T02:58:20;307.60;;;34.53;;
20669;SDS011;10494;50.868;4.180;2023-02-22T03:00:47;509.20;;;44.77;;
20669;SDS011;10494;50.868;4.180;2023-02-22T03:12:00;105.77;;;27.80;;
20669;SDS011;10494;50.868;4.180;2023-02-22T03:17:51;66.30;;;26.07;;
20669;SDS011;10494;50.868;4.180;2023-02-22T03:20:28;91.43;;;26.77;;
20669;SDS011;10494;50.868;4.180;2023-02-22T03:25:44;66.40;;;25.40;;
20669;SDS011;10494;50.868;4.180;2023-02-22T03:28:14;119.60;;;26.67;;
20669;SDS011;10494;50.868;4.180;2023-02-22T03:30:53;102.03;;;28.03;;
20669;SDS011;10494;50.868;4.180;2023-02-22T03:33:38;61.90;;;24.63;;
20669;SDS011;10494;50.868;4.180;2023-02-22T03:36:17;79.10;;;26.50;;
20669;SDS011;10494;50.868;4.180;2023-02-22T03:38:52;75.27;;;26.53;;
20669;SDS011;10494;50.868;4.180;2023-02-22T03:41:22;64.90;;;25.67;;
20669;SDS011;10494;50.868;4.180;2023-02-22T03:43:49;66.73;;;24.53;;
20669;SDS011;10494;50.868;4.180;2023-02-22T03:46:19;62.47;;;24.53;;
20669;SDS011;10494;50.868;4.180;2023-02-22T03:48:48;66.13;;;25.97;;
20669;SDS011;10494;50.868;4.180;2023-02-22T03:51:18;66.00;;;26.27;;
20669;SDS011;10494;50.868;4.180;2023-02-22T03:53:44;64.67;;;25.27;;
20669;SDS011;10494;50.868;4.180;2023-02-22T03:56:12;62.50;;;26.17;;
20669;SDS011;10494;50.868;4.180;2023-02-22T03:58:46;61.13;;;24.50;;
20669;SDS011;10494;50.868;4.180;2023-02-22T04:01:13;60.30;;;23.67;;
20669;SDS011;10494;50.868;4.180;2023-02-22T04:03:39;58.27;;;24.27;;
20669;SDS011;10494;50.868;4.180;2023-02-22T04:06:06;55.67;;;22.57;;
20669;SDS011;10494;50.868;4.180;2023-02-22T04:08:32;58.70;;;23.93;;
20669;SDS011;10494;50.868;4.180;2023-02-22T04:10:58;56.07;;;23.37;;
20669;SDS011;10494;50.868;4.180;2023-02-22T04:13:23;54.67;;;23.33;;
20669;SDS011;10494;50.868;4.180;2023-02-22T04:15:49;57.30;;;22.57;;
20669;SDS011;10494;50.868;4.180;2023-02-22T04:18:14;53.23;;;23.40;;
20669;SDS011;10494;50.868;4.180;2023-02-22T04:20:41;51.33;;;22.87;;
20669;SDS011;10494;50.868;4.180;2023-02-22T04:23:08;46.63;;;21.10;;
20669;SDS011;10494;50.868;4.180;2023-02-22T04:25:34;50.27;;;21.77;;
20669;SDS011;10494;50.868;4.180;2023-02-22T04:28:00;47.10;;;21.77;;
20669;SDS011;10494;50.868;4.180;2023-02-22T04:30:26;50.73;;;20.83;;
20669;SDS011;10494;50.868;4.180;2023-02-22T04:32:54;48.93;;;21.23;;
20669;SDS011;10494;50.868;4.180;2023-02-22T04:35:20;43.53;;;20.60;;
20669;SDS011;10494;50.868;4.180;2023-02-22T04:37:46;43.33;;;19.90;;
20669;SDS011;10494;50.868;4.180;2023-02-22T04:40:11;45.33;;;21.47;;
20669;SDS011;10494;50.868;4.180;2023-02-22T04:42:37;49.50;;;21.87;;
20669;SDS011;10494;50.868;4.180;2023-02-22T04:45:04;40.63;;;19.63;;
20669;SDS011;10494;50.868;4.180;2023-02-22T04:47:31;38.50;;;19.53;;
20669;SDS011;10494;50.868;4.180;2023-02-22T04:49:57;39.40;;;19.73;;
20669;SDS011;10494;50.868;4.180;2023-02-22T04:52:24;46.47;;;20.67;;
20669;SDS011;10494;50.868;4.180;2023-02-22T04:54:50;39.73;;;18.80;;
20669;SDS011;10494;50.868;4.180;2023-02-22T04:57:16;43.53;;;21.33;;
20669;SDS011;10494;50.868;4.180;2023-02-22T04:59:42;39.47;;;19.03;;
20669;SDS011;10494;50.868;4.180;2023-02-22T05:02:07;39.23;;;20.27;;
20669;SDS011;10494;50.868;4.180;2023-02-22T05:04:36;40.63;;;20.50;;
20669;SDS011;10494;50.868;4.180;2023-02-22T05:07:02;37.37;;;19.10;;
20669;SDS011;10494;50.868;4.180;2023-02-22T05:09:28;40.60;;;19.60;;
20669;SDS011;10494;50.868;4.180;2023-02-22T05:11:53;34.27;;;18.07;;
20669;SDS011;10494;50.868;4.180;2023-02-22T05:14:19;36.13;;;18.67;;
20669;SDS011;10494;50.868;4.180;2023-02-22T05:16:44;37.57;;;19.33;;
20669;SDS011;10494;50.868;4.180;2023-02-22T05:19:13;35.27;;;18.53;;
20669;SDS011;10494;50.868;4.180;2023-02-22T05:21:38;43.77;;;19.30;;
20669;SDS011;10494;50.868;4.180;2023-02-22T05:24:04;38.37;;;18.17;;
20669;SDS011;10494;50.868;4.180;2023-02-22T05:26:30;38.40;;;17.70;;
20669;SDS011;10494;50.868;4.180;2023-02-22T05:28:56;38.53;;;18.80;;
20669;SDS011;10494;50.868;4.180;2023-02-22T05:31:21;38.67;;;18.83;;
20669;SDS011;10494;50.868;4.180;2023-02-22T05:33:47;35.17;;;17.90;;
20669;SDS011;10494;50.868;4.180;2023-02-22T05:36:12;32.77;;;17.37;;
20669;SDS011;10494;50.868;4.180;2023-02-22T05:38:38;34.17;;;17.77;;
20669;SDS011;10494;50.868;4.180;2023-02-22T05:41:07;37.77;;;19.13;;
20669;SDS011;10494;50.868;4.180;2023-02-22T05:43:34;33.47;;;17.50;;
20669;SDS011;10494;50.868;4.180;2023-02-22T05:46:00;32.50;;;17.33;;
20669;SDS011;10494;50.868;4.180;2023-02-22T05:48:26;34.60;;;18.47;;
20669;SDS011;10494;50.868;4.180;2023-02-22T05:50:52;38.73;;;19.00;;
20669;SDS011;10494;50.868;4.180;2023-02-22T05:53:17;36.17;;;18.53;;
20669;SDS011;10494;50.868;4.180;2023-02-22T05:55:43;37.60;;;18.70;;
20669;SDS011;10494;50.868;4.180;2023-02-22T05:58:08;34.67;;;17.90;;
20669;SDS011;10494;50.868;4.180;2023-02-22T06:00:35;36.17;;;18.20;;
20669;SDS011;10494;50.868;4.180;2023-02-22T06:03:05;32.03;;;16.83;;
20669;SDS011;10494;50.868;4.180;2023-02-22T06:05:33;36.43;;;18.17;;
20669;SDS011;10494;50.868;4.180;2023-02-22T06:07:59;32.60;;;18.23;;
20669;SDS011;10494;50.868;4.180;2023-02-22T06:10:25;38.50;;;18.47;;
20669;SDS011;10494;50.868;4.180;2023-02-22T06:12:51;35.53;;;18.27;;
20669;SDS011;10494;50.868;4.180;2023-02-22T06:15:18;33.90;;;17.73;;
20669;SDS011;10494;50.868;4.180;2023-02-22T06:17:45;46.40;;;18.43;;
20669;SDS011;10494;50.868;4.180;2023-02-22T06:20:12;28.93;;;16.33;;
20669;SDS011;10494;50.868;4.180;2023-02-22T06:22:40;29.53;;;17.23;;
20669;SDS011;10494;50.868;4.180;2023-02-22T06:25:06;34.17;;;18.13;;
20669;SDS011;10494;50.868;4.180;2023-02-22T06:27:34;34.03;;;16.73;;
20669;SDS011;10494;50.868;4.180;2023-02-22T06:30:00;34.97;;;18.20;;
20669;SDS011;10494;50.868;4.180;2023-02-22T06:32:26;36.87;;;17.07;;
20669;SDS011;10494;50.868;4.180;2023-02-22T06:34:52;34.43;;;17.53;;
20669;SDS011;10494;50.868;4.180;2023-02-22T06:37:17;30.60;;;16.27;;
20669;SDS011;10494;50.868;4.180;2023-02-22T06:39:43;34.27;;;17.10;;
20669;SDS011;10494;50.868;4.180;2023-02-22T06:42:08;31.80;;;17.67;;
20669;SDS011;10494;50.868;4.180;2023-02-22T06:44:34;30.07;;;16.67;;
20669;SDS011;10494;50.868;4.180;2023-02-22T06:47:00;33.50;;;17.00;;
20669;SDS011;10494;50.868;4.180;2023-02-22T06:49:26;33.97;;;16.37;;
20669;SDS011;10494;50.868;4.180;2023-02-22T06:51:52;33.73;;;16.13;;
20669;SDS011;10494;50.868;4.180;2023-02-22T06:54:17;31.97;;;17.30;;
20669;SDS011;10494;50.868;4.180;2023-02-22T06:56:43;37.67;;;19.80;;
20669;SDS011;10494;50.868;4.180;2023-02-22T06:59:09;34.47;;;16.63;;
20669;SDS011;10494;50.868;4.180;2023-02-22T07:01:34;32.30;;;17.07;;
20669;SDS011;10494;50.868;4.180;2023-02-22T07:04:00;31.83;;;16.20;;
20669;SDS011;10494;50.868;4.180;2023-02-22T07:06:26;30.57;;;16.17;;
20669;SDS011;10494;50.868;4.180;2023-02-22T07:08:51;31.03;;;15.63;;
20669;SDS011;10494;50.868;4.180;2023-02-22T07:11:17;37.00;;;17.50;;
20669;SDS011;10494;50.868;4.180;2023-02-22T07:13:42;34.80;;;16.60;;
20669;SDS011;10494;50.868;4.180;2023-02-22T07:16:08;33.93;;;16.50;;
20669;SDS011;10494;50.868;4.180;2023-02-22T07:18:34;30.80;;;16.37;;
20669;SDS011;10494;50.868;4.180;2023-02-22T07:20:59;31.37;;;16.60;;
20669;SDS011;10494;50.868;4.180;2023-02-22T07:23:25;47.90;;;17.67;;
20669;SDS011;10494;50.868;4.180;2023-02-22T07:25:51;94.07;;;20.37;;
20669;SDS011;10494;50.868;4.180;2023-02-22T07:28:16;58.07;;;17.70;;
20669;SDS011;10494;50.868;4.180;2023-02-22T07:30:42;53.60;;;17.97;;
20669;SDS011;10494;50.868;4.180;2023-02-22T07:33:09;34.80;;;16.13;;
20669;SDS011;10494;50.868;4.180;2023-02-22T07:35:46;34.27;;;15.60;;
20669;SDS011;10494;50.868;4.180;2023-02-22T07:38:14;29.47;;;15.23;;
20669;SDS011;10494;50.868;4.180;2023-02-22T07:40:41;41.93;;;17.10;;
20669;SDS011;10494;50.868;4.180;2023-02-22T07:43:21;26.77;;;15.57;;
20669;SDS011;10494;50.868;4.180;2023-02-22T07:45:52;31.43;;;16.80;;
20669;SDS011;10494;50.868;4.180;2023-02-22T07:48:19;27.23;;;15.80;;
20669;SDS011;10494;50.868;4.180;2023-02-22T07:50:47;29.53;;;15.50;;
20669;SDS011;10494;50.868;4.180;2023-02-22T07:55:42;28.23;;;16.10;;
20669;SDS011;10494;50.868;4.180;2023-02-22T07:58:07;30.50;;;15.73;;
20669;SDS011;10494;50.868;4.180;2023-02-22T08:00:37;26.27;;;14.50;;
20669;SDS011;10494;50.868;4.180;2023-02-22T08:03:05;28.27;;;14.50;;
20669;SDS011;10494;50.868;4.180;2023-02-22T08:05:32;25.33;;;14.33;;
20669;SDS011;10494;50.868;4.180;2023-02-22T08:07:59;27.60;;;14.97;;
20669;SDS011;10494;50.868;4.180;2023-02-22T08:10:25;24.97;;;12.93;;
20669;SDS011;10494;50.868;4.180;2023-02-22T08:12:52;26.50;;;13.93;;
20669;SDS011;10494;50.868;4.180;2023-02-22T08:15:20;22.30;;;13.70;;
20669;SDS011;10494;50.868;4.180;2023-02-22T08:17:53;28.40;;;13.50;;
20669;SDS011;10494;50.868;4.180;2023-02-22T08:20:19;23.97;;;13.63;;
20669;SDS011;10494;50.868;4.180;2023-02-22T08:22:45;31.17;;;13.63;;
20669;SDS011;10494;50.868;4.180;2023-02-22T08:25:13;21.63;;;12.60;;
20669;SDS011;10494;50.868;4.180;2023-02-22T08:27:40;23.73;;;12.93;;
20669;SDS011;10494;50.868;4.180;2023-02-22T08:30:06;23.07;;;13.03;;
20669;SDS011;10494;50.868;4.180;2023-02-22T08:32:33;27.63;;;13.10;;
20669;SDS011;10494;50.868;4.180;2023-02-22T08:35:02;22.83;;;12.27;;
20669;SDS011;10494;50.868;4.180;2023-02-22T08:37:27;25.03;;;12.60;;
20669;SDS011;10494;50.868;4.180;2023-02-22T08:39:53;22.30;;;12.47;;
20669;SDS011;10494;50.868;4.180;2023-02-22T08:42:20;27.23;;;12.10;;
20669;SDS011;10494;50.868;4.180;2023-02-22T08:44:46;21.00;;;12.53;;
20669;SDS011;10494;50.868;4.180;2023-02-22T08:47:11;24.50;;;13.00;;
20669;SDS011;10494;50.868;4.180;2023-02-22T08:49:37;23.67;;;12.80;;
20669;SDS011;10494;50.868;4.180;2023-02-22T08:52:03;20.57;;;12.50;;
20669;SDS011;10494;50.868;4.180;2023-02-22T08:54:29;26.80;;;13.90;;
20669;SDS011;10494;50.868;4.180;2023-02-22T08:56:54;34.17;;;14.23;;
20669;SDS011;10494;50.868;4.180;2023-02-22T08:59:20;23.50;;;12.80;;
20669;SDS011;10494;50.868;4.180;2023-02-22T09:01:45;26.33;;;12.93;;
20669;SDS011;10494;50.868;4.180;2023-02-22T09:04:11;22.40;;;12.50;;
20669;SDS011;10494;50.868;4.180;2023-02-22T09:06:39;25.20;;;13.47;;
20669;SDS011;10494;50.868;4.180;2023-02-22T09:09:06;26.77;;;13.20;;
20669;SDS011;10494;50.868;4.180;2023-02-22T09:11:31;20.87;;;12.33;;
20669;SDS011;10494;50.868;4.180;2023-02-22T09:13:57;20.88;;;12.55;;
20669;SDS011;10494;50.868;4.180;2023-02-22T09:16:23;23.70;;;13.47;;
20669;SDS011;10494;50.868;4.180;2023-02-22T09:18:48;21.07;;;12.87;;
20669;SDS011;10494;50.868;4.180;2023-02-22T09:21:14;23.80;;;12.77;;
20669;SDS011;10494;50.868;4.180;2023-02-22T09:23:40;21.63;;;12.82;;
20669;SDS011;10494;50.868;4.180;2023-02-22T09:26:09;25.95;;;13.23;;
20669;SDS011;10494;50.868;4.180;2023-02-22T09:28:36;22.58;;;13.38;;
20669;SDS011;10494;50.868;4.180;2023-02-22T09:31:02;27.75;;;12.55;;
20669;SDS011;10494;50.868;4.180;2023-02-22T09:33:28;28.48;;;12.02;;
20669;SDS011;10494;50.868;4.180;2023-02-22T09:35:53;23.98;;;13.02;;
20669;SDS011;10494;50.868;4.180;2023-02-22T09:38:20;20.50;;;12.43;;
20669;SDS011;10494;50.868;4.180;2023-02-22T09:43:40;24.67;;;12.85;;
20669;SDS011;10494;50.868;4.180;2023-02-22T09:46:35;28.98;;;13.00;;
20669;SDS011;10494;50.868;4.180;2023-02-22T09:49:04;25.52;;;13.43;;
20669;SDS011;10494;50.868;4.180;2023-02-22T09:51:59;22.45;;;12.25;;
20669;SDS011;10494;50.868;4.180;2023-02-22T09:57:24;23.98;;;13.32;;
20669;SDS011;10494;50.868;4.180;2023-02-22T10:02:47;21.95;;;12.65;;
20669;SDS011;10494;50.868;4.180;2023-02-22T10:07:57;24.08;;;12.23;;
20669;SDS011;10494;50.868;4.180;2023-02-22T10:10:30;23.38;;;12.93;;
20669;SDS011;10494;50.868;4.180;2023-02-22T10:13:23;19.27;;;12.15;;
20669;SDS011;10494;50.868;4.180;2023-02-22T10:24:03;24.05;;;13.45;;
20669;SDS011;10494;50.868;4.180;2023-02-22T10:26:33;21.80;;;13.73;;
20669;SDS011;10494;50.868;4.180;2023-02-22T10:29:16;19.42;;;12.95;;
20669;SDS011;10494;50.868;4.180;2023-02-22T10:32:04;25.15;;;13.32;;
20669;SDS011;10494;50.868;4.180;2023-02-22T10:34:46;24.92;;;13.55;;
20669;SDS011;10494;50.868;4.180;2023-02-22T10:39:49;26.98;;;14.95;;
20669;SDS011;10494;50.868;4.180;2023-02-22T10:42:19;24.90;;;15.13;;
20669;SDS011;10494;50.868;4.180;2023-02-22T10:44:49;26.05;;;14.80;;
20669;SDS011;10494;50.868;4.180;2023-02-22T10:47:14;25.55;;;15.45;;
20669;SDS011;10494;50.868;4.180;2023-02-22T10:49:49;24.42;;;15.45;;
20669;SDS011;10494;50.868;4.180;2023-02-22T10:54:54;24.67;;;14.95;;
20669;SDS011;10494;50.868;4.180;2023-02-22T10:57:24;28.73;;;16.85;;
20669;SDS011;10494;50.868;4.180;2023-02-22T10:59:55;30.65;;;17.70;;
20669;SDS011;10494;50.868;4.180;2023-02-22T11:02:28;27.92;;;17.45;;
20669;SDS011;10494;50.868;4.180;2023-02-22T11:04:57;29.33;;;17.85;;
20669;SDS011;10494;50.868;4.180;2023-02-22T11:07:25;28.98;;;17.92;;
20669;SDS011;10494;50.868;4.180;2023-02-22T11:09:57;29.40;;;18.15;;
20669;SDS011;10494;50.868;4.180;2023-02-22T11:12:29;33.88;;;18.52;;
20669;SDS011;10494;50.868;4.180;2023-02-22T11:14:55;37.50;;;19.50;;
20669;SDS011;10494;50.868;4.180;2023-02-22T11:17:29;46.60;;;20.13;;
20669;SDS011;10494;50.868;4.180;2023-02-22T11:19:57;34.85;;;20.15;;
20669;SDS011;10494;50.868;4.180;2023-02-22T11:22:25;29.70;;;19.60;;
20669;SDS011;10494;50.868;4.180;2023-02-22T11:24:56;30.48;;;20.60;;
20669;SDS011;10494;50.868;4.180;2023-02-22T11:27:36;33.38;;;20.85;;
20669;SDS011;10494;50.868;4.180;2023-02-22T11:32:50;32.15;;;20.40;;
20669;SDS011;10494;50.868;4.180;2023-02-22T11:35:29;36.13;;;22.90;;
20669;SDS011;10494;50.868;4.180;2023-02-22T11:38:18;39.08;;;22.48;;
20669;SDS011;10494;50.868;4.180;2023-02-22T11:43:45;38.38;;;24.27;;
20669;SDS011;10494;50.868;4.180;2023-02-22T11:54:22;34.85;;;23.60;;
20669;SDS011;10494;50.868;4.180;2023-02-22T12:00:03;37.00;;;24.35;;
20669;SDS011;10494;50.868;4.180;2023-02-22T12:21:56;35.22;;;24.10;;
20669;SDS011;10494;50.868;4.180;2023-02-22T12:24:41;40.97;;;24.80;;
20669;SDS011;10494;50.868;4.180;2023-02-22T12:27:31;39.47;;;24.05;;
20669;SDS011;10494;50.868;4.180;2023-02-22T12:30:04;35.95;;;23.40;;
20669;SDS011;10494;50.868;4.180;2023-02-22T12:35:20;36.15;;;23.52;;
20669;SDS011;10494;50.868;4.180;2023-02-22T12:38:49;42.47;;;24.77;;
20669;SDS011;10494;50.868;4.180;2023-02-22T12:44:05;39.00;;;24.13;;
20669;SDS011;10494;50.868;4.180;2023-02-22T12:46:39;37.35;;;24.67;;
20669;SDS011;10494;50.868;4.180;2023-02-22T13:00:00;47.08;;;27.13;;
20669;SDS011;10494;50.868;4.180;2023-02-22T13:05:14;44.85;;;27.42;;
20669;SDS011;10494;50.868;4.180;2023-02-22T13:16:02;46.70;;;28.75;;
20669;SDS011;10494;50.868;4.180;2023-02-22T13:21:05;44.17;;;27.85;;
20669;SDS011;10494;50.868;4.180;2023-02-22T13:26:29;43.90;;;27.90;;
20669;SDS011;10494;50.868;4.180;2023-02-22T13:31:48;44.92;;;27.23;;
20669;SDS011;10494;50.868;4.180;2023-02-22T13:40:15;45.00;;;28.42;;
20669;SDS011;10494;50.868;4.180;2023-02-22T13:43:07;47.80;;;29.60;;
20669;SDS011;10494;50.868;4.180;2023-02-22T13:51:46;46.10;;;28.75;;
20669;SDS011;10494;50.868;4.180;2023-02-22T13:57:16;53.22;;;31.52;;
20669;SDS011;10494;50.868;4.180;2023-02-22T13:59:44;47.58;;;30.27;;
20669;SDS011;10494;50.868;4.180;2023-02-22T14:02:31;46.97;;;28.67;;
20669;SDS011;10494;50.868;4.180;2023-02-22T14:05:16;50.60;;;29.70;;
20669;SDS011;10494;50.868;4.180;2023-02-22T14:10:51;44.70;;;28.27;;
20669;SDS011;10494;50.868;4.180;2023-02-22T14:13:21;49.72;;;30.70;;
20669;SDS011;10494;50.868;4.180;2023-02-22T14:18:24;52.83;;;29.17;;
20669;SDS011;10494;50.868;4.180;2023-02-22T14:21:05;53.28;;;30.95;;
20669;SDS011;10494;50.868;4.180;2023-02-22T14:23:38;53.67;;;33.38;;
20669;SDS011;10494;50.868;4.180;2023-02-22T14:28:44;62.55;;;35.97;;
20669;SDS011;10494;50.868;4.180;2023-02-22T14:31:33;55.28;;;32.22;;
20669;SDS011;10494;50.868;4.180;2023-02-22T14:34:37;55.90;;;31.13;;
20669;SDS011;10494;50.868;4.180;2023-02-22T14:37:13;60.22;;;33.38;;
20669;SDS011;10494;50.868;4.180;2023-02-22T14:39:46;56.72;;;30.42;;
20669;SDS011;10494;50.868;4.180;2023-02-22T14:42:22;54.92;;;29.98;;
20669;SDS011;10494;50.868;4.180;2023-02-22T14:44:57;50.40;;;28.48;;
20669;SDS011;10494;50.868;4.180;2023-02-22T14:47:26;49.83;;;29.20;;
20669;SDS011;10494;50.868;4.180;2023-02-22T14:50:04;54.45;;;29.63;;
20669;SDS011;10494;50.868;4.180;2023-02-22T14:52:36;52.78;;;30.17;;
20669;SDS011;10494;50.868;4.180;2023-02-22T14:55:12;52.88;;;30.02;;
20669;SDS011;10494;50.868;4.180;2023-02-22T15:00:36;53.10;;;30.25;;
20669;SDS011;10494;50.868;4.180;2023-02-22T15:03:16;60.78;;;30.67;;
20669;SDS011;10494;50.868;4.180;2023-02-22T15:05:52;59.88;;;30.83;;
20669;SDS011;10494;50.868;4.180;2023-02-22T15:08:19;52.08;;;30.13;;
20669;SDS011;10494;50.868;4.180;2023-02-22T15:10:52;59.00;;;29.95;;
20669;SDS011;10494;50.868;4.180;2023-02-22T15:13:25;55.53;;;30.45;;
20669;SDS011;10494;50.868;4.180;2023-02-22T15:16:11;53.47;;;30.33;;
20669;SDS011;10494;50.868;4.180;2023-02-22T15:18:39;55.92;;;30.15;;
20669;SDS011;10494;50.868;4.180;2023-02-22T15:21:13;53.13;;;28.48;;
20669;SDS011;10494;50.868;4.180;2023-02-22T15:23:44;54.42;;;29.40;;
20669;SDS011;10494;50.868;4.180;2023-02-22T15:26:28;52.40;;;28.48;;
20669;SDS011;10494;50.868;4.180;2023-02-22T15:29:00;56.67;;;29.17;;
20669;SDS011;10494;50.868;4.180;2023-02-22T15:32:23;54.80;;;28.77;;
20669;SDS011;10494;50.868;4.180;2023-02-22T15:38:02;57.83;;;29.42;;
20669;SDS011;10494;50.868;4.180;2023-02-22T15:40:38;58.28;;;30.65;;
20669;SDS011;10494;50.868;4.180;2023-02-22T15:43:20;56.45;;;30.08;;
20669;SDS011;10494;50.868;4.180;2023-02-22T15:45:48;63.58;;;30.13;;
20669;SDS011;10494;50.868;4.180;2023-02-22T15:48:17;58.97;;;30.65;;
20669;SDS011;10494;50.868;4.180;2023-02-22T15:51:03;65.20;;;31.92;;
20669;SDS011;10494;50.868;4.180;2023-02-22T15:53:45;60.97;;;32.60;;
20669;SDS011;10494;50.868;4.180;2023-02-22T15:56:14;63.80;;;34.28;;
20669;SDS011;10494;50.868;4.180;2023-02-22T15:58:42;69.57;;;35.30;;
20669;SDS011;10494;50.868;4.180;2023-02-22T16:01:12;67.18;;;36.38;;
20669;SDS011;10494;50.868;4.180;2023-02-22T16:03:55;73.40;;;36.30;;
20669;SDS011;10494;50.868;4.180;2023-02-22T16:08:52;70.40;;;35.95;;
20669;SDS011;10494;50.868;4.180;2023-02-22T16:11:41;74.95;;;36.33;;
20669;SDS011;10494;50.868;4.180;2023-02-22T16:14:23;75.25;;;35.47;;
20669;SDS011;10494;50.868;4.180;2023-02-22T16:22:56;78.78;;;39.00;;
20669;SDS011;10494;50.868;4.180;2023-02-22T16:25:23;82.30;;;39.28;;
20669;SDS011;10494;50.868;4.180;2023-02-22T16:32:58;82.00;;;37.05;;
20669;SDS011;10494;50.868;4.180;2023-02-22T16:35:32;71.13;;;36.15;;
20669;SDS011;10494;50.868;4.180;2023-02-22T16:38:03;82.20;;;40.58;;
20669;SDS011;10494;50.868;4.180;2023-02-22T16:40:36;82.82;;;38.95;;
20669;SDS011;10494;50.868;4.180;2023-02-22T16:43:10;74.72;;;38.85;;
20669;SDS011;10494;50.868;4.180;2023-02-22T16:45:38;74.07;;;37.15;;
20669;SDS011;10494;50.868;4.180;2023-02-22T16:48:10;85.63;;;40.47;;
20669;SDS011;10494;50.868;4.180;2023-02-22T16:50:39;78.75;;;38.47;;
20669;SDS011;10494;50.868;4.180;2023-02-22T16:53:05;77.32;;;37.80;;
20669;SDS011;10494;50.868;4.180;2023-02-22T16:55:31;73.50;;;37.38;;
20669;SDS011;10494;50.868;4.180;2023-02-22T16:57:56;73.15;;;37.03;;
20669;SDS011;10494;50.868;4.180;2023-02-22T17:00:25;74.78;;;39.08;;
20669;SDS011;10494;50.868;4.180;2023-02-22T17:02:59;79.45;;;40.08;;
20669;SDS011;10494;50.868;4.180;2023-02-22T17:05:28;77.88;;;39.45;;
20669;SDS011;10494;50.868;4.180;2023-02-22T17:07:54;78.53;;;36.90;;
20669;SDS011;10494;50.868;4.180;2023-02-22T17:10:20;75.85;;;38.25;;
20669;SDS011;10494;50.868;4.180;2023-02-22T17:12:46;82.95;;;40.03;;
20669;SDS011;10494;50.868;4.180;2023-02-22T17:15:24;80.55;;;39.33;;
20669;SDS011;10494;50.868;4.180;2023-02-22T17:17:51;81.55;;;38.85;;
20669;SDS011;10494;50.868;4.180;2023-02-22T17:20:18;85.38;;;39.28;;
20669;SDS011;10494;50.868;4.180;2023-02-22T17:22:54;80.93;;;39.55;;
20669;SDS011;10494;50.868;4.180;2023-02-22T17:25:25;80.03;;;40.58;;